sensor_id;sensor_type;location;lat;lon;timestamp;P1;durP1;ratioP1;P2;durP2;ratioP2
13706;SDS011;6925;47.816;13.072;2022-09-29T00:00:53;2.70;;;1.08;;
13706;SDS011;6925;47.816;13.072;2022-09-29T00:03:22;2.70;;;1.35;;
13706;SDS011;6925;47.816;13.072;2022-09-29T00:05:50;2.30;;;1.23;;
13706;SDS011;6925;47.816;13.072;2022-09-29T00:08:20;2.33;;;1.05;;
13706;SDS011;6925;47.816;13.072;2022-09-29T00:10:48;1.77;;;0.88;;
13706;SDS011;6925;47.816;13.072;2022-09-29T00:13:16;3.45;;;1.23;;
13706;SDS011;6925;47.816;13.072;2022-09-29T00:15:53;3.00;;;0.85;;
13706;SDS011;6925;47.816;13.072;2022-09-29T00:18:25;1.35;;;0.60;;
13706;SDS011;6925;47.816;13.072;2022-09-29T00:21:00;2.22;;;0.80;;
13706;SDS011;6925;47.816;13.072;2022-09-29T00:23:29;3.00;;;0.70;;
13706;SDS011;6925;47.816;13.072;2022-09-29T00:26:01;2.58;;;0.80;;
13706;SDS011;6925;47.816;13.072;2022-09-29T00:28:30;1.50;;;0.60;;
13706;SDS011;6925;47.816;13.072;2022-09-29T00:30:58;3.35;;;0.57;;
13706;SDS011;6925;47.816;13.072;2022-09-29T00:33:29;1.00;;;0.52;;
13706;SDS011;6925;47.816;13.072;2022-09-29T00:35:58;1.15;;;0.60;;
13706;SDS011;6925;47.816;13.072;2022-09-29T00:38:28;0.80;;;0.40;;
13706;SDS011;6925;47.816;13.072;2022-09-29T00:40:56;0.60;;;0.40;;
13706;SDS011;6925;47.816;13.072;2022-09-29T00:43:44;1.35;;;0.60;;
13706;SDS011;6925;47.816;13.072;2022-09-29T00:46:16;2.17;;;0.70;;
13706;SDS011;6925;47.816;13.072;2022-09-29T00:48:47;1.25;;;0.55;;
13706;SDS011;6925;47.816;13.072;2022-09-29T00:51:16;0.73;;;0.50;;
13706;SDS011;6925;47.816;13.072;2022-09-29T00:53:45;1.52;;;0.60;;
13706;SDS011;6925;47.816;13.072;2022-09-29T00:56:14;0.93;;;0.50;;
13706;SDS011;6925;47.816;13.072;2022-09-29T00:58:46;1.00;;;0.50;;
13706;SDS011;6925;47.816;13.072;2022-09-29T01:01:19;0.90;;;0.35;;
13706;SDS011;6925;47.816;13.072;2022-09-29T01:03:47;1.92;;;1.00;;
13706;SDS011;6925;47.816;13.072;2022-09-29T01:06:18;2.63;;;0.60;;
13706;SDS011;6925;47.816;13.072;2022-09-29T01:08:50;1.20;;;0.50;;
13706;SDS011;6925;47.816;13.072;2022-09-29T01:11:22;1.63;;;0.80;;
13706;SDS011;6925;47.816;13.072;2022-09-29T01:13:54;1.45;;;0.70;;
13706;SDS011;6925;47.816;13.072;2022-09-29T01:16:27;0.95;;;0.55;;
13706;SDS011;6925;47.816;13.072;2022-09-29T01:18:56;1.63;;;0.50;;
13706;SDS011;6925;47.816;13.072;2022-09-29T01:21:27;0.90;;;0.43;;
13706;SDS011;6925;47.816;13.072;2022-09-29T01:24:18;1.35;;;0.65;;
13706;SDS011;6925;47.816;13.072;2022-09-29T01:27:06;0.98;;;0.52;;
13706;SDS011;6925;47.816;13.072;2022-09-29T01:32:38;0.30;;;0.30;;
13706;SDS011;6925;47.816;13.072;2022-09-29T01:35:19;1.25;;;0.50;;
13706;SDS011;6925;47.816;13.072;2022-09-29T01:37:54;0.95;;;0.55;;
13706;SDS011;6925;47.816;13.072;2022-09-29T01:40:32;1.63;;;0.50;;
13706;SDS011;6925;47.816;13.072;2022-09-29T01:43:08;1.58;;;0.63;;
13706;SDS011;6925;47.816;13.072;2022-09-29T01:45:39;1.27;;;0.47;;
13706;SDS011;6925;47.816;13.072;2022-09-29T01:48:14;0.68;;;0.40;;
13706;SDS011;6925;47.816;13.072;2022-09-29T01:50:45;0.80;;;0.43;;
13706;SDS011;6925;47.816;13.072;2022-09-29T01:53:18;2.13;;;0.52;;
13706;SDS011;6925;47.816;13.072;2022-09-29T01:56:10;0.43;;;0.30;;
13706;SDS011;6925;47.816;13.072;2022-09-29T01:58:44;0.95;;;0.40;;
13706;SDS011;6925;47.816;13.072;2022-09-29T02:01:19;1.98;;;0.50;;
13706;SDS011;6925;47.816;13.072;2022-09-29T02:03:50;0.98;;;0.50;;
13706;SDS011;6925;47.816;13.072;2022-09-29T02:06:22;0.40;;;0.38;;
13706;SDS011;6925;47.816;13.072;2022-09-29T02:08:54;0.52;;;0.40;;
13706;SDS011;6925;47.816;13.072;2022-09-29T02:11:24;1.45;;;0.50;;
13706;SDS011;6925;47.816;13.072;2022-09-29T02:13:56;1.30;;;0.32;;
13706;SDS011;6925;47.816;13.072;2022-09-29T02:16:28;1.05;;;0.40;;
13706;SDS011;6925;47.816;13.072;2022-09-29T02:18:59;0.22;;;0.20;;
13706;SDS011;6925;47.816;13.072;2022-09-29T02:21:30;1.40;;;0.30;;
13706;SDS011;6925;47.816;13.072;2022-09-29T02:23:58;0.15;;;0.13;;
13706;SDS011;6925;47.816;13.072;2022-09-29T02:26:27;0.45;;;0.30;;
13706;SDS011;6925;47.816;13.072;2022-09-29T02:28:57;0.25;;;0.22;;
13706;SDS011;6925;47.816;13.072;2022-09-29T02:31:26;0.90;;;0.40;;
13706;SDS011;6925;47.816;13.072;2022-09-29T02:33:54;0.82;;;0.40;;
13706;SDS011;6925;47.816;13.072;2022-09-29T02:36:25;1.77;;;0.70;;
13706;SDS011;6925;47.816;13.072;2022-09-29T02:39:00;1.25;;;0.47;;
13706;SDS011;6925;47.816;13.072;2022-09-29T02:41:33;2.08;;;0.50;;
13706;SDS011;6925;47.816;13.072;2022-09-29T02:47:14;0.40;;;0.40;;
13706;SDS011;6925;47.816;13.072;2022-09-29T02:49:58;0.40;;;0.40;;
13706;SDS011;6925;47.816;13.072;2022-09-29T02:52:45;0.73;;;0.40;;
13706;SDS011;6925;47.816;13.072;2022-09-29T02:55:19;0.45;;;0.30;;
13706;SDS011;6925;47.816;13.072;2022-09-29T02:57:57;1.10;;;0.60;;
13706;SDS011;6925;47.816;13.072;2022-09-29T03:00:30;1.30;;;0.50;;
13706;SDS011;6925;47.816;13.072;2022-09-29T03:02:58;1.42;;;0.52;;
13706;SDS011;6925;47.816;13.072;2022-09-29T03:05:25;0.82;;;0.40;;
13706;SDS011;6925;47.816;13.072;2022-09-29T03:07:54;0.40;;;0.32;;
13706;SDS011;6925;47.816;13.072;2022-09-29T03:10:21;0.57;;;0.40;;
13706;SDS011;6925;47.816;13.072;2022-09-29T03:12:49;0.85;;;0.32;;
13706;SDS011;6925;47.816;13.072;2022-09-29T03:15:16;0.57;;;0.40;;
13706;SDS011;6925;47.816;13.072;2022-09-29T03:17:44;0.30;;;0.20;;
13706;SDS011;6925;47.816;13.072;2022-09-29T03:20:14;1.73;;;0.40;;
13706;SDS011;6925;47.816;13.072;2022-09-29T03:25:10;0.98;;;0.40;;
13706;SDS011;6925;47.816;13.072;2022-09-29T03:27:40;0.95;;;0.50;;
13706;SDS011;6925;47.816;13.072;2022-09-29T03:30:10;1.20;;;0.50;;
13706;SDS011;6925;47.816;13.072;2022-09-29T03:32:38;0.50;;;0.30;;
13706;SDS011;6925;47.816;13.072;2022-09-29T03:37:33;4.03;;;0.80;;
13706;SDS011;6925;47.816;13.072;2022-09-29T03:40:01;1.20;;;0.63;;
13706;SDS011;6925;47.816;13.072;2022-09-29T03:42:32;1.40;;;0.52;;
13706;SDS011;6925;47.816;13.072;2022-09-29T03:44:59;0.85;;;0.60;;
13706;SDS011;6925;47.816;13.072;2022-09-29T03:47:26;1.10;;;0.47;;
13706;SDS011;6925;47.816;13.072;2022-09-29T03:49:54;0.98;;;0.40;;
13706;SDS011;6925;47.816;13.072;2022-09-29T03:54:48;1.05;;;0.40;;
13706;SDS011;6925;47.816;13.072;2022-09-29T03:57:16;0.70;;;0.40;;
13706;SDS011;6925;47.816;13.072;2022-09-29T04:02:12;3.63;;;0.50;;
13706;SDS011;6925;47.816;13.072;2022-09-29T04:04:42;0.95;;;0.40;;
13706;SDS011;6925;47.816;13.072;2022-09-29T04:07:15;1.30;;;0.55;;
13706;SDS011;6925;47.816;13.072;2022-09-29T04:09:43;0.57;;;0.40;;
13706;SDS011;6925;47.816;13.072;2022-09-29T04:12:11;2.38;;;0.40;;
13706;SDS011;6925;47.816;13.072;2022-09-29T04:14:40;0.70;;;0.40;;
13706;SDS011;6925;47.816;13.072;2022-09-29T04:17:09;0.85;;;0.50;;
13706;SDS011;6925;47.816;13.072;2022-09-29T04:19:36;3.55;;;0.60;;
13706;SDS011;6925;47.816;13.072;2022-09-29T04:22:04;0.80;;;0.50;;
13706;SDS011;6925;47.816;13.072;2022-09-29T04:24:31;0.82;;;0.43;;
13706;SDS011;6925;47.816;13.072;2022-09-29T04:26:58;0.75;;;0.38;;
13706;SDS011;6925;47.816;13.072;2022-09-29T04:29:26;1.10;;;0.55;;
13706;SDS011;6925;47.816;13.072;2022-09-29T04:31:54;1.00;;;0.40;;
13706;SDS011;6925;47.816;13.072;2022-09-29T04:37:51;1.30;;;0.57;;
13706;SDS011;6925;47.816;13.072;2022-09-29T04:40:23;0.85;;;0.50;;
13706;SDS011;6925;47.816;13.072;2022-09-29T04:42:51;1.33;;;0.65;;
13706;SDS011;6925;47.816;13.072;2022-09-29T04:45:28;1.08;;;0.60;;
13706;SDS011;6925;47.816;13.072;2022-09-29T04:48:34;1.13;;;0.60;;
13706;SDS011;6925;47.816;13.072;2022-09-29T04:51:02;1.05;;;0.55;;
13706;SDS011;6925;47.816;13.072;2022-09-29T04:53:35;1.08;;;0.50;;
13706;SDS011;6925;47.816;13.072;2022-09-29T04:59:06;1.45;;;0.63;;
13706;SDS011;6925;47.816;13.072;2022-09-29T05:01:34;1.15;;;0.57;;
13706;SDS011;6925;47.816;13.072;2022-09-29T05:07:50;1.20;;;0.60;;
13706;SDS011;6925;47.816;13.072;2022-09-29T05:10:19;1.55;;;0.82;;
13706;SDS011;6925;47.816;13.072;2022-09-29T05:12:47;1.38;;;0.70;;
13706;SDS011;6925;47.816;13.072;2022-09-29T05:15:15;1.92;;;0.80;;
13706;SDS011;6925;47.816;13.072;2022-09-29T05:17:43;1.75;;;0.68;;
13706;SDS011;6925;47.816;13.072;2022-09-29T05:20:10;1.92;;;0.80;;
13706;SDS011;6925;47.816;13.072;2022-09-29T05:22:38;1.85;;;0.82;;
13706;SDS011;6925;47.816;13.072;2022-09-29T05:25:06;2.05;;;0.68;;
13706;SDS011;6925;47.816;13.072;2022-09-29T05:27:36;1.63;;;0.90;;
13706;SDS011;6925;47.816;13.072;2022-09-29T05:33:26;1.88;;;0.73;;
13706;SDS011;6925;47.816;13.072;2022-09-29T05:35:55;2.95;;;1.00;;
13706;SDS011;6925;47.816;13.072;2022-09-29T05:40:49;2.30;;;0.80;;
13706;SDS011;6925;47.816;13.072;2022-09-29T05:43:19;9.07;;;3.95;;
13706;SDS011;6925;47.816;13.072;2022-09-29T05:45:46;12.35;;;7.85;;
13706;SDS011;6925;47.816;13.072;2022-09-29T05:48:13;4.25;;;2.33;;
13706;SDS011;6925;47.816;13.072;2022-09-29T05:50:42;3.10;;;1.48;;
13706;SDS011;6925;47.816;13.072;2022-09-29T05:53:10;4.95;;;2.17;;
13706;SDS011;6925;47.816;13.072;2022-09-29T05:55:38;2.28;;;1.05;;
13706;SDS011;6925;47.816;13.072;2022-09-29T05:58:05;2.33;;;1.02;;
13706;SDS011;6925;47.816;13.072;2022-09-29T06:00:35;2.60;;;1.10;;
13706;SDS011;6925;47.816;13.072;2022-09-29T06:03:04;2.80;;;1.08;;
13706;SDS011;6925;47.816;13.072;2022-09-29T06:08:00;2.05;;;1.02;;
13706;SDS011;6925;47.816;13.072;2022-09-29T06:10:30;1.95;;;1.15;;
13706;SDS011;6925;47.816;13.072;2022-09-29T06:12:58;1.80;;;0.90;;
13706;SDS011;6925;47.816;13.072;2022-09-29T06:15:27;2.25;;;0.95;;
13706;SDS011;6925;47.816;13.072;2022-09-29T06:17:56;2.38;;;1.30;;
13706;SDS011;6925;47.816;13.072;2022-09-29T06:20:25;3.38;;;1.65;;
13706;SDS011;6925;47.816;13.072;2022-09-29T06:22:53;2.42;;;1.23;;
13706;SDS011;6925;47.816;13.072;2022-09-29T06:25:21;4.50;;;1.75;;
13706;SDS011;6925;47.816;13.072;2022-09-29T06:27:49;2.60;;;1.30;;
13706;SDS011;6925;47.816;13.072;2022-09-29T06:30:17;2.70;;;1.25;;
13706;SDS011;6925;47.816;13.072;2022-09-29T06:32:44;2.75;;;1.23;;
13706;SDS011;6925;47.816;13.072;2022-09-29T06:35:14;3.45;;;1.58;;
13706;SDS011;6925;47.816;13.072;2022-09-29T06:37:59;3.55;;;1.48;;
13706;SDS011;6925;47.816;13.072;2022-09-29T06:40:27;2.38;;;1.23;;
13706;SDS011;6925;47.816;13.072;2022-09-29T06:45:21;3.33;;;1.60;;
13706;SDS011;6925;47.816;13.072;2022-09-29T06:47:49;4.25;;;1.85;;
13706;SDS011;6925;47.816;13.072;2022-09-29T06:50:18;3.05;;;1.20;;
13706;SDS011;6925;47.816;13.072;2022-09-29T06:52:46;5.20;;;1.70;;
13706;SDS011;6925;47.816;13.072;2022-09-29T06:55:14;4.68;;;1.45;;
13706;SDS011;6925;47.816;13.072;2022-09-29T06:57:41;3.17;;;1.30;;
13706;SDS011;6925;47.816;13.072;2022-09-29T07:00:10;5.22;;;1.30;;
13706;SDS011;6925;47.816;13.072;2022-09-29T07:02:43;4.65;;;1.38;;
13706;SDS011;6925;47.816;13.072;2022-09-29T07:05:11;2.80;;;1.20;;
13706;SDS011;6925;47.816;13.072;2022-09-29T07:07:40;1.80;;;0.80;;
13706;SDS011;6925;47.816;13.072;2022-09-29T07:10:08;2.63;;;0.85;;
13706;SDS011;6925;47.816;13.072;2022-09-29T07:12:35;2.90;;;1.08;;
13706;SDS011;6925;47.816;13.072;2022-09-29T07:15:02;4.10;;;1.63;;
13706;SDS011;6925;47.816;13.072;2022-09-29T07:17:30;5.03;;;2.38;;
13706;SDS011;6925;47.816;13.072;2022-09-29T07:19:57;5.03;;;2.40;;
13706;SDS011;6925;47.816;13.072;2022-09-29T07:24:54;4.95;;;1.67;;
13706;SDS011;6925;47.816;13.072;2022-09-29T07:27:21;3.50;;;1.60;;
13706;SDS011;6925;47.816;13.072;2022-09-29T07:32:16;3.63;;;1.90;;
13706;SDS011;6925;47.816;13.072;2022-09-29T07:34:43;3.80;;;1.63;;
13706;SDS011;6925;47.816;13.072;2022-09-29T07:39:38;3.55;;;1.60;;
13706;SDS011;6925;47.816;13.072;2022-09-29T07:44:34;4.35;;;1.60;;
13706;SDS011;6925;47.816;13.072;2022-09-29T07:47:02;3.97;;;1.60;;
13706;SDS011;6925;47.816;13.072;2022-09-29T07:51:56;3.05;;;1.45;;
13706;SDS011;6925;47.816;13.072;2022-09-29T07:54:24;2.72;;;1.33;;
13706;SDS011;6925;47.816;13.072;2022-09-29T07:56:51;3.30;;;1.63;;
13706;SDS011;6925;47.816;13.072;2022-09-29T07:59:20;3.55;;;1.20;;
13706;SDS011;6925;47.816;13.072;2022-09-29T08:01:47;3.17;;;1.42;;
13706;SDS011;6925;47.816;13.072;2022-09-29T08:04:15;3.85;;;1.48;;
13706;SDS011;6925;47.816;13.072;2022-09-29T08:06:42;3.38;;;1.80;;
13706;SDS011;6925;47.816;13.072;2022-09-29T08:11:37;2.20;;;1.17;;
13706;SDS011;6925;47.816;13.072;2022-09-29T08:14:05;3.63;;;1.80;;
13706;SDS011;6925;47.816;13.072;2022-09-29T08:16:35;3.70;;;1.65;;
13706;SDS011;6925;47.816;13.072;2022-09-29T08:19:04;5.05;;;1.80;;
13706;SDS011;6925;47.816;13.072;2022-09-29T08:21:31;3.63;;;1.88;;
13706;SDS011;6925;47.816;13.072;2022-09-29T08:24:01;4.35;;;1.90;;
13706;SDS011;6925;47.816;13.072;2022-09-29T08:26:31;2.53;;;1.20;;
13706;SDS011;6925;47.816;13.072;2022-09-29T08:29:00;2.75;;;1.17;;
13706;SDS011;6925;47.816;13.072;2022-09-29T08:31:28;3.17;;;1.17;;
13706;SDS011;6925;47.816;13.072;2022-09-29T08:33:57;4.88;;;1.73;;
13706;SDS011;6925;47.816;13.072;2022-09-29T08:36:25;4.07;;;1.80;;
13706;SDS011;6925;47.816;13.072;2022-09-29T08:38:52;3.33;;;1.67;;
13706;SDS011;6925;47.816;13.072;2022-09-29T08:44:16;3.00;;;1.60;;
13706;SDS011;6925;47.816;13.072;2022-09-29T08:46:47;3.17;;;1.42;;
13706;SDS011;6925;47.816;13.072;2022-09-29T08:49:19;3.97;;;1.70;;
13706;SDS011;6925;47.816;13.072;2022-09-29T08:51:50;3.00;;;1.40;;
13706;SDS011;6925;47.816;13.072;2022-09-29T08:54:22;2.53;;;1.10;;
13706;SDS011;6925;47.816;13.072;2022-09-29T08:56:54;2.42;;;1.00;;
13706;SDS011;6925;47.816;13.072;2022-09-29T08:59:22;2.40;;;1.10;;
13706;SDS011;6925;47.816;13.072;2022-09-29T09:01:59;1.70;;;0.90;;
13706;SDS011;6925;47.816;13.072;2022-09-29T09:07:34;2.70;;;0.95;;
13706;SDS011;6925;47.816;13.072;2022-09-29T09:10:16;2.67;;;0.82;;
13706;SDS011;6925;47.816;13.072;2022-09-29T09:13:03;1.85;;;0.80;;
13706;SDS011;6925;47.816;13.072;2022-09-29T09:15:48;2.55;;;1.02;;
13706;SDS011;6925;47.816;13.072;2022-09-29T09:18:34;3.20;;;0.90;;
13706;SDS011;6925;47.816;13.072;2022-09-29T09:21:25;1.60;;;0.70;;
13706;SDS011;6925;47.816;13.072;2022-09-29T09:23:56;1.60;;;0.80;;
13706;SDS011;6925;47.816;13.072;2022-09-29T09:26:31;2.17;;;0.60;;
13706;SDS011;6925;47.816;13.072;2022-09-29T09:29:02;1.23;;;0.70;;
13706;SDS011;6925;47.816;13.072;2022-09-29T09:31:33;1.90;;;0.93;;
13706;SDS011;6925;47.816;13.072;2022-09-29T09:34:06;1.83;;;0.70;;
13706;SDS011;6925;47.816;13.072;2022-09-29T09:36:43;1.25;;;0.70;;
13706;SDS011;6925;47.816;13.072;2022-09-29T09:39:14;2.15;;;0.88;;
13706;SDS011;6925;47.816;13.072;2022-09-29T09:41:47;0.80;;;0.47;;
13706;SDS011;6925;47.816;13.072;2022-09-29T09:44:18;1.73;;;0.50;;
13706;SDS011;6925;47.816;13.072;2022-09-29T09:46:50;2.20;;;0.63;;
13706;SDS011;6925;47.816;13.072;2022-09-29T09:49:22;2.50;;;0.60;;
13706;SDS011;6925;47.816;13.072;2022-09-29T09:51:58;1.25;;;0.50;;
13706;SDS011;6925;47.816;13.072;2022-09-29T09:54:29;1.38;;;0.43;;
13706;SDS011;6925;47.816;13.072;2022-09-29T09:57:15;0.30;;;0.25;;
13706;SDS011;6925;47.816;13.072;2022-09-29T10:00:09;1.13;;;0.40;;
13706;SDS011;6925;47.816;13.072;2022-09-29T10:02:40;0.75;;;0.30;;
13706;SDS011;6925;47.816;13.072;2022-09-29T10:05:13;1.13;;;0.40;;
13706;SDS011;6925;47.816;13.072;2022-09-29T10:07:43;0.63;;;0.40;;
13706;SDS011;6925;47.816;13.072;2022-09-29T10:10:14;1.30;;;0.30;;
13706;SDS011;6925;47.816;13.072;2022-09-29T10:12:43;1.10;;;0.40;;
13706;SDS011;6925;47.816;13.072;2022-09-29T10:15:16;1.00;;;0.40;;
13706;SDS011;6925;47.816;13.072;2022-09-29T10:17:49;0.50;;;0.40;;
13706;SDS011;6925;47.816;13.072;2022-09-29T10:20:33;0.95;;;0.40;;
13706;SDS011;6925;47.816;13.072;2022-09-29T10:23:19;0.60;;;0.30;;
13706;SDS011;6925;47.816;13.072;2022-09-29T10:25:52;0.75;;;0.40;;
13706;SDS011;6925;47.816;13.072;2022-09-29T10:28:25;0.55;;;0.40;;
13706;SDS011;6925;47.816;13.072;2022-09-29T10:30:57;1.63;;;0.20;;
13706;SDS011;6925;47.816;13.072;2022-09-29T10:33:25;1.30;;;0.40;;
13706;SDS011;6925;47.816;13.072;2022-09-29T10:36:03;0.55;;;0.30;;
13706;SDS011;6925;47.816;13.072;2022-09-29T10:38:36;0.70;;;0.40;;
13706;SDS011;6925;47.816;13.072;2022-09-29T10:41:04;2.35;;;0.30;;
13706;SDS011;6925;47.816;13.072;2022-09-29T10:43:34;1.55;;;0.40;;
13706;SDS011;6925;47.816;13.072;2022-09-29T10:46:03;0.13;;;0.13;;
13706;SDS011;6925;47.816;13.072;2022-09-29T10:48:31;0.65;;;0.40;;
13706;SDS011;6925;47.816;13.072;2022-09-29T10:50:59;0.52;;;0.38;;
13706;SDS011;6925;47.816;13.072;2022-09-29T10:53:31;1.52;;;0.30;;
13706;SDS011;6925;47.816;13.072;2022-09-29T10:56:04;2.90;;;0.77;;
13706;SDS011;6925;47.816;13.072;2022-09-29T10:58:41;3.30;;;0.95;;
13706;SDS011;6925;47.816;13.072;2022-09-29T11:01:11;3.22;;;1.10;;
13706;SDS011;6925;47.816;13.072;2022-09-29T11:03:45;1.40;;;0.40;;
13706;SDS011;6925;47.816;13.072;2022-09-29T11:06:15;2.38;;;0.82;;
13706;SDS011;6925;47.816;13.072;2022-09-29T11:08:53;2.78;;;0.80;;
13706;SDS011;6925;47.816;13.072;2022-09-29T11:14:50;2.30;;;0.70;;
13706;SDS011;6925;47.816;13.072;2022-09-29T11:17:19;1.65;;;0.70;;
13706;SDS011;6925;47.816;13.072;2022-09-29T11:19:52;1.90;;;0.60;;
13706;SDS011;6925;47.816;13.072;2022-09-29T11:22:30;1.55;;;0.60;;
13706;SDS011;6925;47.816;13.072;2022-09-29T11:25:28;1.50;;;0.43;;
13706;SDS011;6925;47.816;13.072;2022-09-29T11:28:12;0.68;;;0.40;;
13706;SDS011;6925;47.816;13.072;2022-09-29T11:30:59;3.08;;;0.90;;
13706;SDS011;6925;47.816;13.072;2022-09-29T11:33:38;1.27;;;0.50;;
13706;SDS011;6925;47.816;13.072;2022-09-29T11:36:15;0.63;;;0.40;;
13706;SDS011;6925;47.816;13.072;2022-09-29T11:38:58;1.52;;;0.80;;
13706;SDS011;6925;47.816;13.072;2022-09-29T11:41:40;2.30;;;1.05;;
13706;SDS011;6925;47.816;13.072;2022-09-29T11:44:24;2.63;;;1.00;;
13706;SDS011;6925;47.816;13.072;2022-09-29T11:47:17;3.67;;;1.25;;
13706;SDS011;6925;47.816;13.072;2022-09-29T11:50:10;2.30;;;0.75;;
13706;SDS011;6925;47.816;13.072;2022-09-29T11:52:54;2.13;;;0.90;;
13706;SDS011;6925;47.816;13.072;2022-09-29T11:55:35;3.00;;;0.80;;
13706;SDS011;6925;47.816;13.072;2022-09-29T11:58:17;2.28;;;1.08;;
13706;SDS011;6925;47.816;13.072;2022-09-29T12:00:56;4.95;;;1.10;;
13706;SDS011;6925;47.816;13.072;2022-09-29T12:03:36;3.13;;;1.17;;
13706;SDS011;6925;47.816;13.072;2022-09-29T12:06:15;2.78;;;1.17;;
13706;SDS011;6925;47.816;13.072;2022-09-29T12:09:08;2.97;;;1.33;;
13706;SDS011;6925;47.816;13.072;2022-09-29T12:11:51;6.15;;;1.70;;
13706;SDS011;6925;47.816;13.072;2022-09-29T12:14:26;4.38;;;1.60;;
13706;SDS011;6925;47.816;13.072;2022-09-29T12:17:06;2.70;;;1.50;;
13706;SDS011;6925;47.816;13.072;2022-09-29T12:19:40;2.90;;;1.80;;
13706;SDS011;6925;47.816;13.072;2022-09-29T12:22:16;4.18;;;1.70;;
13706;SDS011;6925;47.816;13.072;2022-09-29T12:24:46;4.25;;;2.00;;
13706;SDS011;6925;47.816;13.072;2022-09-29T12:30:04;3.22;;;2.42;;
13706;SDS011;6925;47.816;13.072;2022-09-29T12:32:43;4.63;;;3.08;;
13706;SDS011;6925;47.816;13.072;2022-09-29T12:35:24;4.10;;;2.10;;
13706;SDS011;6925;47.816;13.072;2022-09-29T12:38:13;3.50;;;2.40;;
13706;SDS011;6925;47.816;13.072;2022-09-29T12:41:22;3.17;;;2.35;;
13706;SDS011;6925;47.816;13.072;2022-09-29T12:43:57;6.47;;;2.50;;
13706;SDS011;6925;47.816;13.072;2022-09-29T12:46:29;4.35;;;2.22;;
13706;SDS011;6925;47.816;13.072;2022-09-29T12:49:06;3.47;;;2.40;;
13706;SDS011;6925;47.816;13.072;2022-09-29T12:52:01;4.85;;;2.65;;
13706;SDS011;6925;47.816;13.072;2022-09-29T12:54:36;3.35;;;2.05;;
13706;SDS011;6925;47.816;13.072;2022-09-29T12:57:13;3.65;;;1.80;;
13706;SDS011;6925;47.816;13.072;2022-09-29T13:00:14;3.33;;;1.83;;
13706;SDS011;6925;47.816;13.072;2022-09-29T13:06:35;3.05;;;2.10;;
13706;SDS011;6925;47.816;13.072;2022-09-29T13:29:11;3.20;;;2.33;;
13706;SDS011;6925;47.816;13.072;2022-09-29T13:33:17;3.63;;;1.90;;
13706;SDS011;6925;47.816;13.072;2022-09-29T13:38:29;5.05;;;2.13;;
13706;SDS011;6925;47.816;13.072;2022-09-29T13:41:07;3.13;;;2.10;;
13706;SDS011;6925;47.816;13.072;2022-09-29T13:53:33;2.60;;;1.60;;
13706;SDS011;6925;47.816;13.072;2022-09-29T14:13:27;3.50;;;1.88;;
13706;SDS011;6925;47.816;13.072;2022-09-29T14:16:08;3.55;;;1.95;;
13706;SDS011;6925;47.816;13.072;2022-09-29T14:18:44;4.63;;;1.60;;
13706;SDS011;6925;47.816;13.072;2022-09-29T14:24:01;3.30;;;1.50;;
13706;SDS011;6925;47.816;13.072;2022-09-29T14:26:43;3.78;;;1.73;;
13706;SDS011;6925;47.816;13.072;2022-09-29T14:29:13;3.17;;;1.52;;
13706;SDS011;6925;47.816;13.072;2022-09-29T14:31:47;3.25;;;1.50;;
13706;SDS011;6925;47.816;13.072;2022-09-29T14:34:18;4.18;;;1.60;;
13706;SDS011;6925;47.816;13.072;2022-09-29T14:36:48;3.42;;;1.50;;
13706;SDS011;6925;47.816;13.072;2022-09-29T14:39:18;2.90;;;1.20;;
13706;SDS011;6925;47.816;13.072;2022-09-29T14:41:47;3.85;;;1.52;;
13706;SDS011;6925;47.816;13.072;2022-09-29T14:44:18;2.83;;;1.45;;
13706;SDS011;6925;47.816;13.072;2022-09-29T14:46:52;2.75;;;1.20;;
13706;SDS011;6925;47.816;13.072;2022-09-29T14:50:07;3.58;;;1.23;;
13706;SDS011;6925;47.816;13.072;2022-09-29T14:53:11;2.30;;;1.20;;
13706;SDS011;6925;47.816;13.072;2022-09-29T14:55:55;3.47;;;1.20;;
13706;SDS011;6925;47.816;13.072;2022-09-29T14:58:38;2.63;;;1.10;;
13706;SDS011;6925;47.816;13.072;2022-09-29T15:01:25;2.60;;;1.40;;
13706;SDS011;6925;47.816;13.072;2022-09-29T15:03:55;2.55;;;1.08;;
13706;SDS011;6925;47.816;13.072;2022-09-29T15:06:24;2.72;;;0.98;;
13706;SDS011;6925;47.816;13.072;2022-09-29T15:08:53;2.60;;;1.10;;
13706;SDS011;6925;47.816;13.072;2022-09-29T15:11:33;2.90;;;1.20;;
13706;SDS011;6925;47.816;13.072;2022-09-29T15:14:15;2.80;;;1.00;;
13706;SDS011;6925;47.816;13.072;2022-09-29T15:17:01;3.38;;;1.20;;
13706;SDS011;6925;47.816;13.072;2022-09-29T15:19:38;2.60;;;0.93;;
13706;SDS011;6925;47.816;13.072;2022-09-29T15:22:29;2.53;;;1.00;;
13706;SDS011;6925;47.816;13.072;2022-09-29T15:25:22;2.67;;;1.13;;
13706;SDS011;6925;47.816;13.072;2022-09-29T15:27:54;3.20;;;1.00;;
13706;SDS011;6925;47.816;13.072;2022-09-29T15:30:25;2.60;;;1.20;;
13706;SDS011;6925;47.816;13.072;2022-09-29T15:33:01;1.95;;;1.05;;
13706;SDS011;6925;47.816;13.072;2022-09-29T15:35:45;3.10;;;1.35;;
13706;SDS011;6925;47.816;13.072;2022-09-29T15:38:26;2.50;;;1.08;;
13706;SDS011;6925;47.816;13.072;2022-09-29T15:40:59;4.90;;;1.10;;
13706;SDS011;6925;47.816;13.072;2022-09-29T15:43:39;3.05;;;1.10;;
13706;SDS011;6925;47.816;13.072;2022-09-29T15:46:14;4.55;;;1.00;;
13706;SDS011;6925;47.816;13.072;2022-09-29T15:52:16;4.05;;;1.10;;
13706;SDS011;6925;47.816;13.072;2022-09-29T16:01:01;2.03;;;0.98;;
13706;SDS011;6925;47.816;13.072;2022-09-29T16:10:31;4.05;;;1.33;;
13706;SDS011;6925;47.816;13.072;2022-09-29T16:13:06;3.20;;;1.30;;
13706;SDS011;6925;47.816;13.072;2022-09-29T16:15:46;3.47;;;1.88;;
13706;SDS011;6925;47.816;13.072;2022-09-29T16:18:15;3.58;;;1.67;;
13706;SDS011;6925;47.816;13.072;2022-09-29T16:20:50;3.38;;;1.50;;
13706;SDS011;6925;47.816;13.072;2022-09-29T16:23:27;3.13;;;1.83;;
13706;SDS011;6925;47.816;13.072;2022-09-29T16:26:34;3.45;;;1.60;;
13706;SDS011;6925;47.816;13.072;2022-09-29T16:32:37;4.65;;;2.05;;
13706;SDS011;6925;47.816;13.072;2022-09-29T16:38:18;5.55;;;2.35;;
13706;SDS011;6925;47.816;13.072;2022-09-29T16:41:05;5.72;;;1.85;;
13706;SDS011;6925;47.816;13.072;2022-09-29T16:44:16;4.65;;;2.25;;
13706;SDS011;6925;47.816;13.072;2022-09-29T16:46:53;5.30;;;2.10;;
13706;SDS011;6925;47.816;13.072;2022-09-29T16:49:26;4.28;;;2.22;;
13706;SDS011;6925;47.816;13.072;2022-09-29T16:51:56;3.97;;;2.15;;
13706;SDS011;6925;47.816;13.072;2022-09-29T16:54:28;5.28;;;2.40;;
13706;SDS011;6925;47.816;13.072;2022-09-29T16:57:18;5.38;;;2.47;;
13706;SDS011;6925;47.816;13.072;2022-09-29T16:59:57;6.15;;;2.92;;
13706;SDS011;6925;47.816;13.072;2022-09-29T17:02:30;4.72;;;2.75;;
13706;SDS011;6925;47.816;13.072;2022-09-29T17:04:57;6.80;;;2.97;;
13706;SDS011;6925;47.816;13.072;2022-09-29T17:07:25;5.40;;;3.28;;
13706;SDS011;6925;47.816;13.072;2022-09-29T17:09:53;5.10;;;2.97;;
13706;SDS011;6925;47.816;13.072;2022-09-29T17:12:22;6.28;;;3.45;;
13706;SDS011;6925;47.816;13.072;2022-09-29T17:14:53;8.43;;;3.95;;
13706;SDS011;6925;47.816;13.072;2022-09-29T17:17:21;8.43;;;3.72;;
13706;SDS011;6925;47.816;13.072;2022-09-29T17:19:51;6.45;;;3.83;;
13706;SDS011;6925;47.816;13.072;2022-09-29T17:22:25;6.68;;;3.67;;
13706;SDS011;6925;47.816;13.072;2022-09-29T17:25:04;6.20;;;3.63;;
13706;SDS011;6925;47.816;13.072;2022-09-29T17:27:32;7.30;;;4.03;;
13706;SDS011;6925;47.816;13.072;2022-09-29T17:30:24;6.40;;;4.05;;
13706;SDS011;6925;47.816;13.072;2022-09-29T17:32:53;8.35;;;5.15;;
13706;SDS011;6925;47.816;13.072;2022-09-29T17:35:23;7.00;;;4.25;;
13706;SDS011;6925;47.816;13.072;2022-09-29T17:37:52;11.73;;;6.28;;
13706;SDS011;6925;47.816;13.072;2022-09-29T17:40:21;11.77;;;6.38;;
13706;SDS011;6925;47.816;13.072;2022-09-29T17:42:50;14.02;;;7.55;;
13706;SDS011;6925;47.816;13.072;2022-09-29T17:45:19;13.30;;;7.60;;
13706;SDS011;6925;47.816;13.072;2022-09-29T17:47:49;8.10;;;5.15;;
13706;SDS011;6925;47.816;13.072;2022-09-29T17:50:19;9.30;;;5.70;;